Time;durP1;ratioP1;P1;durP2;ratioP2;P2;SDS_P1;SDS_P2;PMS_P1;PMS_P2;Temp;Humidity;BMP_temperature;BMP_pressure;BME280_temperature;BME280_humidity;BME280_pressure;Samples;Min_cycle;Max_cycle;Signal;HPM_P1;HPM_P2
2023/10/10 00:00:54;;;;;;;10.68;5.65;;;14.50;99.90;;;;;;5058310;28;20771;-59
2023/10/10 00:03:26;;;;;;;18.30;5.53;;;14.40;99.90;;;;;;5071076;28;20310;-59
2023/10/10 00:05:57;;;;;;;12.70;5.35;;;14.40;99.90;;;;;;5071492;28;20312;-59
2023/10/10 00:08:30;;;;;;;12.82;5.25;;;14.40;99.90;;;;;;5071282;28;20236;-59
2023/10/10 00:10:58;;;;;;;11.35;5.45;;;14.40;99.90;;;;;;5071258;28;20251;-59
2023/10/10 00:13:26;;;;;;;9.63;5.43;;;14.40;99.90;;;;;;5070852;28;20724;-59
2023/10/10 00:16:05;;;;;;;7.57;5.68;;;14.40;99.90;;;;;;5071364;28;20252;-59
2023/10/10 00:18:38;;;;;;;9.07;4.60;;;14.40;99.90;;;;;;5065135;28;20205;-59
2023/10/10 00:21:07;;;;;;;10.40;5.03;;;14.30;99.90;;;;;;5051054;28;20728;-59
2023/10/10 00:23:42;;;;;;;8.15;4.88;;;14.30;99.90;;;;;;5059127;28;20213;-60
2023/10/10 00:26:13;;;;;;;12.57;5.40;;;14.30;99.90;;;;;;5057496;28;20281;-61
2023/10/10 00:28:41;;;;;;;9.93;4.75;;;14.30;99.90;;;;;;5050216;28;20660;-60
2023/10/10 00:31:10;;;;;;;9.20;4.93;;;14.30;99.90;;;;;;5049786;28;20198;-58
2023/10/10 00:33:40;;;;;;;8.95;4.80;;;14.20;99.90;;;;;;5050585;28;20699;-60
2023/10/10 00:36:11;;;;;;;7.15;4.35;;;14.20;99.90;;;;;;5059090;28;20225;-59
2023/10/10 00:38:41;;;;;;;13.27;4.95;;;14.20;99.90;;;;;;5062570;28;20237;-60
2023/10/10 00:41:10;;;;;;;7.90;4.63;;;14.20;99.90;;;;;;5059992;28;20316;-60
2023/10/10 00:43:38;;;;;;;10.65;4.93;;;14.20;99.90;;;;;;5050790;28;20206;-59
2023/10/10 00:46:07;;;;;;;9.73;4.53;;;14.10;99.90;;;;;;5058232;28;20318;-59
2023/10/10 00:48:38;;;;;;;7.55;4.00;;;14.20;99.90;;;;;;5059700;28;20206;-59
2023/10/10 00:51:10;;;;;;;6.78;4.68;;;14.10;99.90;;;;;;5066458;28;20212;-60
2023/10/10 00:53:39;;;;;;;6.47;4.35;;;14.10;99.90;;;;;;5054402;28;20205;-60
2023/10/10 00:56:08;;;;;;;12.73;4.55;;;14.10;99.90;;;;;;5071037;28;20229;-60
2023/10/10 00:58:39;;;;;;;10.00;4.40;;;14.00;99.90;;;;;;5067904;28;20241;-59
2023/10/10 01:01:10;;;;;;;9.07;4.82;;;14.00;99.90;;;;;;5066112;28;20228;-59
2023/10/10 01:03:41;;;;;;;9.68;4.28;;;14.00;99.90;;;;;;5070880;28;20201;-59
2023/10/10 01:06:24;;;;;;;7.07;3.60;;;14.00;99.90;;;;;;5059473;28;20225;-60
2023/10/10 01:08:58;;;;;;;9.32;4.25;;;14.00;99.90;;;;;;5050645;28;20206;-59
2023/10/10 01:11:25;;;;;;;12.38;4.38;;;13.90;99.90;;;;;;5068479;28;20205;-58
2023/10/10 01:13:53;;;;;;;7.43;4.32;;;13.90;99.90;;;;;;5070939;28;20308;-59
2023/10/10 01:16:26;;;;;;;7.90;4.15;;;13.90;99.90;;;;;;5074668;28;20228;-59
2023/10/10 01:18:57;;;;;;;8.18;4.50;;;13.90;99.90;;;;;;5074480;28;20255;-59
2023/10/10 01:21:32;;;;;;;9.00;4.68;;;13.80;99.90;;;;;;5070004;28;20714;-59
2023/10/10 01:24:11;;;;;;;8.57;4.63;;;13.80;99.90;;;;;;5074507;28;20208;-58
2023/10/10 01:26:44;;;;;;;10.88;4.55;;;13.80;99.90;;;;;;5074180;28;20760;-60
2023/10/10 01:29:21;;;;;;;13.02;4.65;;;13.80;99.90;;;;;;5074099;28;20221;-58
2023/10/10 01:31:51;;;;;;;9.90;4.00;;;13.70;99.90;;;;;;5066280;28;20208;-59
2023/10/10 01:37:14;;;;;;;9.15;4.97;;;13.70;99.90;;;;;;5070656;28;20212;-60
2023/10/10 01:39:54;;;;;;;8.95;5.20;;;13.70;99.90;;;;;;5062334;28;20205;-59
2023/10/10 01:42:31;;;;;;;11.18;5.60;;;13.60;99.90;;;;;;5071305;28;20232;-59
2023/10/10 01:45:02;;;;;;;12.35;6.25;;;13.60;99.90;;;;;;5074017;28;20225;-59
2023/10/10 01:47:34;;;;;;;8.10;5.43;;;13.60;99.90;;;;;;5072445;28;20205;-59
2023/10/10 01:50:07;;;;;;;11.98;5.97;;;13.60;99.90;;;;;;5068062;28;20733;-59
2023/10/10 01:52:38;;;;;;;14.10;5.82;;;13.60;99.90;;;;;;5073758;28;20259;-59
2023/10/10 01:55:10;;;;;;;9.32;5.38;;;13.60;99.90;;;;;;5073935;28;20256;-59
2023/10/10 01:57:38;;;;;;;7.95;4.95;;;13.50;99.90;;;;;;5057165;28;20309;-59
2023/10/10 02:00:21;;;;;;;9.77;5.45;;;13.50;99.90;;;;;;5073599;28;20255;-59
2023/10/10 02:02:50;;;;;;;11.10;5.60;;;13.50;99.90;;;;;;5073522;28;20203;-59
2023/10/10 02:05:30;;;;;;;11.05;4.90;;;13.40;99.90;;;;;;5073885;28;20233;-58
2023/10/10 02:08:00;;;;;;;10.68;4.95;;;13.40;99.90;;;;;;5068337;28;20596;-59
2023/10/10 02:10:29;;;;;;;11.88;5.22;;;13.40;99.90;;;;;;5063184;28;20275;-59
2023/10/10 02:12:59;;;;;;;7.47;4.90;;;13.40;99.90;;;;;;5073336;28;20296;-59
2023/10/10 02:15:32;;;;;;;6.13;4.75;;;13.40;99.90;;;;;;5073351;28;20229;-59
2023/10/10 02:18:04;;;;;;;10.90;5.30;;;13.30;99.90;;;;;;5073590;28;20638;-58
2023/10/10 02:23:33;;;;;;;8.52;5.22;;;13.30;99.90;;;;;;5109042;27;20549;-59
2023/10/10 02:26:14;;;;;;;10.82;4.70;;;13.30;99.90;;;;;;5096186;28;20224;-60
2023/10/10 02:28:48;;;;;;;8.80;4.88;;;13.20;99.90;;;;;;5088553;28;20201;-59
2023/10/10 02:31:18;;;;;;;15.65;4.63;;;13.20;99.90;;;;;;5088742;28;20197;-60
2023/10/10 02:33:51;;;;;;;6.93;4.65;;;13.20;99.90;;;;;;5088910;28;20197;-59
2023/10/10 02:36:30;;;;;;;13.00;5.53;;;13.20;99.90;;;;;;5088393;28;20263;-60
2023/10/10 02:39:18;;;;;;;9.38;4.38;;;13.20;99.90;;;;;;5088457;28;20292;-60
2023/10/10 02:41:50;;;;;;;12.20;5.05;;;13.20;99.90;;;;;;5088288;28;20220;-60
2023/10/10 02:44:38;;;;;;;8.05;4.57;;;13.10;99.90;;;;;;5088369;28;20208;-61
2023/10/10 02:47:08;;;;;;;9.48;4.32;;;13.10;99.90;;;;;;5088511;28;20209;-59
2023/10/10 02:49:37;;;;;;;11.13;4.57;;;13.10;99.90;;;;;;5088172;28;20201;-59
2023/10/10 02:52:07;;;;;;;7.55;4.05;;;13.10;99.90;;;;;;5088367;28;20193;-59
2023/10/10 02:54:43;;;;;;;11.95;4.85;;;13.10;99.90;;;;;;5087825;28;20208;-59
2023/10/10 02:57:31;;;;;;;5.82;4.28;;;13.10;99.90;;;;;;5088122;28;20243;-59
2023/10/10 03:00:15;;;;;;;7.57;4.78;;;13.00;99.90;;;;;;5087976;28;20207;-59
2023/10/10 03:02:49;;;;;;;16.70;5.40;;;13.00;99.90;;;;;;5087875;28;20216;-60
2023/10/10 03:05:37;;;;;;;9.02;5.35;;;13.00;99.90;;;;;;5087762;28;20228;-60
2023/10/10 03:08:13;;;;;;;10.82;5.35;;;12.90;99.90;;;;;;5088020;28;20254;-60
2023/10/10 03:10:45;;;;;;;10.68;4.95;;;12.90;99.90;;;;;;5087954;28;20281;-60
2023/10/10 03:13:30;;;;;;;10.52;4.55;;;12.90;99.90;;;;;;5087465;28;20232;-60
2023/10/10 03:16:14;;;;;;;6.15;4.40;;;12.90;99.90;;;;;;5087717;28;20260;-60
2023/10/10 03:18:54;;;;;;;14.07;5.55;;;12.90;99.90;;;;;;5087707;28;20209;-60
2023/10/10 03:21:42;;;;;;;16.35;4.97;;;12.90;99.90;;;;;;5087477;28;20661;-60
2023/10/10 03:24:15;;;;;;;9.93;4.95;;;12.80;99.90;;;;;;5087334;28;20201;-60
2023/10/10 03:27:00;;;;;;;8.57;4.63;;;12.80;99.90;;;;;;5087771;28;20392;-60
2023/10/10 03:29:37;;;;;;;10.57;4.72;;;12.80;99.90;;;;;;5087407;28;20204;-60
2023/10/10 03:32:26;;;;;;;10.65;4.30;;;12.80;99.90;;;;;;5087528;28;20570;-59
2023/10/10 03:34:57;;;;;;;9.30;4.65;;;12.80;99.90;;;;;;5073527;28;20579;-60
2023/10/10 03:37:38;;;;;;;7.47;4.13;;;12.70;99.90;;;;;;5073942;28;20659;-61
2023/10/10 03:40:21;;;;;;;8.48;4.60;;;12.70;99.90;;;;;;5073693;28;20232;-60
2023/10/10 05:25:38;;;;;;;11.48;5.10;;;12.20;99.90;;;;;;5050021;28;20205;-54
2023/10/10 05:28:06;;;;;;;13.20;5.07;;;12.20;99.90;;;;;;5051944;28;20745;-55
2023/10/10 05:30:42;;;;;;;6.97;5.25;;;12.10;99.90;;;;;;5051684;28;20221;-56
2023/10/10 05:33:12;;;;;;;10.63;5.65;;;12.10;99.90;;;;;;5051518;28;20248;-59
2023/10/10 05:35:43;;;;;;;12.93;6.22;;;12.10;99.90;;;;;;5051891;28;20206;-56
2023/10/10 05:38:15;;;;;;;12.43;5.82;;;12.10;99.90;;;;;;5057006;28;20209;-57
2023/10/10 05:40:43;;;;;;;13.45;5.78;;;12.10;99.90;;;;;;5071486;28;20629;-56
2023/10/10 05:43:15;;;;;;;9.63;5.03;;;12.10;99.90;;;;;;5071230;28;20252;-58
2023/10/10 05:45:43;;;;;;;7.72;5.80;;;12.10;99.90;;;;;;5071214;28;20290;-58
2023/10/10 05:48:12;;;;;;;13.80;5.88;;;12.10;99.90;;;;;;5071186;28;20239;-56
2023/10/10 05:50:40;;;;;;;10.65;5.72;;;12.10;99.90;;;;;;5071482;28;20572;-56
2023/10/10 05:53:09;;;;;;;11.70;5.80;;;12.10;99.90;;;;;;5071464;28;20296;-56
2023/10/10 05:55:39;;;;;;;11.15;5.60;;;12.20;99.90;;;;;;5071258;28;20315;-58
2023/10/10 05:58:08;;;;;;;13.73;5.93;;;12.20;99.90;;;;;;5071077;28;20243;-55
2023/10/10 06:00:37;;;;;;;9.82;5.25;;;12.10;99.90;;;;;;5071132;28;20207;-56
2023/10/10 06:03:06;;;;;;;9.82;6.07;;;12.10;99.90;;;;;;5071298;28;20221;-56
2023/10/10 06:05:34;;;;;;;10.05;5.57;;;12.20;99.90;;;;;;5070979;28;20622;-56
2023/10/10 06:08:02;;;;;;;13.07;5.95;;;12.20;99.90;;;;;;5071436;28;20201;-55
2023/10/10 06:10:32;;;;;;;11.88;5.57;;;12.20;99.90;;;;;;5071051;28;20297;-56
2023/10/10 06:13:03;;;;;;;10.45;5.20;;;12.20;99.90;;;;;;5070997;28;20380;-56
2023/10/10 06:15:33;;;;;;;8.75;5.60;;;12.20;99.90;;;;;;5070970;28;20662;-56
2023/10/10 06:18:08;;;;;;;9.60;5.72;;;12.20;99.90;;;;;;5071153;28;20209;-56
2023/10/10 06:20:40;;;;;;;11.57;6.43;;;12.30;99.90;;;;;;5070599;28;20674;-56
2023/10/10 06:23:25;;;;;;;11.93;5.65;;;12.30;99.90;;;;;;5070810;28;20540;-56
2023/10/10 06:25:58;;;;;;;8.52;5.70;;;12.30;99.90;;;;;;5070939;28;20208;-58
2023/10/10 06:28:29;;;;;;;9.98;5.72;;;12.40;99.90;;;;;;5071086;28;20205;-57
2023/10/10 06:30:59;;;;;;;13.80;5.85;;;12.40;99.90;;;;;;5070949;28;20205;-57
2023/10/10 06:33:28;;;;;;;13.60;6.03;;;12.30;99.90;;;;;;5070909;28;20201;-56
2023/10/10 06:36:18;;;;;;;8.52;5.78;;;12.40;99.90;;;;;;5070704;28;20235;-56
2023/10/10 06:38:53;;;;;;;10.80;5.85;;;12.40;99.90;;;;;;5070784;28;20205;-56
2023/10/10 06:41:22;;;;;;;11.20;5.93;;;12.50;99.90;;;;;;5070902;28;20308;-57
2023/10/10 06:43:51;;;;;;;15.70;5.75;;;12.50;99.90;;;;;;5070666;28;20227;-56
2023/10/10 06:46:19;;;;;;;10.90;6.35;;;12.50;99.90;;;;;;5070606;28;20787;-56
2023/10/10 06:48:48;;;;;;;10.15;5.75;;;12.50;99.90;;;;;;5070673;28;20251;-57
2023/10/10 06:51:21;;;;;;;12.63;5.68;;;12.60;99.90;;;;;;5070744;28;20304;-56
2023/10/10 06:53:54;;;;;;;14.77;6.40;;;12.60;99.90;;;;;;5070695;28;20209;-55
2023/10/10 06:56:44;;;;;;;10.07;6.05;;;12.60;99.90;;;;;;5070705;28;20236;-57
2023/10/10 06:59:16;;;;;;;13.23;6.28;;;12.70;99.90;;;;;;5070405;28;20676;-55
2023/10/10 07:01:46;;;;;;;11.43;6.63;;;12.80;99.90;;;;;;5070627;28;20262;-56
2023/10/10 07:04:15;;;;;;;11.23;6.63;;;12.80;99.90;;;;;;5056748;28;20748;-55
2023/10/10 07:06:45;;;;;;;12.55;6.70;;;12.80;99.90;;;;;;5049989;28;20234;-55
2023/10/10 07:09:27;;;;;;;12.95;6.35;;;12.90;99.90;;;;;;5057363;28;20201;-57
2023/10/10 07:11:55;;;;;;;15.27;6.43;;;13.00;99.90;;;;;;5074336;28;20204;-56
2023/10/10 07:14:25;;;;;;;9.60;6.32;;;13.10;99.90;;;;;;5074245;28;20299;-56
2023/10/10 07:16:56;;;;;;;15.23;6.38;;;13.20;99.90;;;;;;5074073;28;20626;-56
2023/10/10 07:19:29;;;;;;;17.15;7.45;;;13.30;99.90;;;;;;5073971;28;20231;-56
2023/10/10 07:21:56;;;;;;;12.88;7.00;;;13.40;99.90;;;;;;5074127;28;20263;-56
2023/10/10 07:24:28;;;;;;;14.73;7.70;;;13.40;99.90;;;;;;5074175;28;20232;-56
2023/10/10 07:27:11;;;;;;;15.23;7.97;;;13.40;99.90;;;;;;5074099;28;20421;-55
2023/10/10 07:32:29;;;;;;;14.20;8.27;;;13.50;99.90;;;;;;5074123;28;20205;-56
2023/10/10 07:34:58;;;;;;;10.27;7.35;;;13.50;99.90;;;;;;5069269;28;20251;-57
2023/10/10 07:37:29;;;;;;;11.52;7.10;;;13.50;99.90;;;;;;5052645;28;20721;-56
2023/10/10 07:39:56;;;;;;;19.40;9.10;;;13.70;99.90;;;;;;5053495;28;20246;-56
2023/10/10 07:42:29;;;;;;;21.65;9.20;;;13.80;99.90;;;;;;5053596;28;20241;-57
2023/10/10 07:44:58;;;;;;;18.00;8.93;;;13.90;99.90;;;;;;5053237;28;20229;-56
2023/10/10 07:47:27;;;;;;;15.90;8.80;;;14.00;99.90;;;;;;5053708;28;20226;-57
2023/10/10 07:49:54;;;;;;;15.45;8.57;;;14.10;99.90;;;;;;5053371;28;20252;-56
2023/10/10 07:52:22;;;;;;;18.90;9.02;;;14.20;99.90;;;;;;5053528;28;20285;-58
2023/10/10 07:55:02;;;;;;;16.63;8.88;;;14.30;99.90;;;;;;5053350;28;20212;-58
2023/10/10 07:57:46;;;;;;;14.40;7.70;;;14.40;99.90;;;;;;5053622;28;20283;-57
2023/10/10 08:00:17;;;;;;;19.95;8.50;;;14.50;99.90;;;;;;5053140;28;20293;-57
2023/10/10 08:02:49;;;;;;;16.80;9.15;;;14.60;99.90;;;;;;5053249;28;20205;-57
2023/10/10 08:05:19;;;;;;;24.20;8.35;;;14.60;99.90;;;;;;5052702;28;20632;-57
2023/10/10 08:07:48;;;;;;;18.65;8.20;;;14.70;99.90;;;;;;5053218;28;20295;-57
2023/10/10 08:10:29;;;;;;;14.18;7.45;;;14.80;99.90;;;;;;5053192;28;20241;-57
2023/10/10 08:12:58;;;;;;;14.85;8.15;;;14.80;99.90;;;;;;5053040;28;20217;-57
2023/10/10 08:15:28;;;;;;;14.23;8.15;;;14.90;99.90;;;;;;5053038;28;20210;-55
2023/10/10 08:17:58;;;;;;;12.23;8.07;;;14.90;99.90;;;;;;5052741;28;20291;-57
2023/10/10 08:23:24;;;;;;;12.15;7.70;;;15.10;99.90;;;;;;5048360;28;20201;-56
2023/10/10 08:25:52;;;;;;;17.83;8.57;;;15.20;99.90;;;;;;5050391;28;20233;-56
2023/10/10 08:28:21;;;;;;;15.05;7.85;;;15.30;99.90;;;;;;5052758;28;20588;-56
2023/10/10 08:30:50;;;;;;;13.68;7.78;;;15.50;99.90;;;;;;5070332;28;20663;-58
2023/10/10 08:33:18;;;;;;;17.98;8.48;;;15.60;99.90;;;;;;5072546;28;20655;-56
2023/10/10 08:35:46;;;;;;;15.57;7.50;;;15.70;99.90;;;;;;5055998;28;20553;-57
2023/10/10 08:38:19;;;;;;;14.85;7.80;;;15.80;99.90;;;;;;5052841;28;20245;-57
2023/10/10 08:40:56;;;;;;;14.43;7.55;;;15.90;99.90;;;;;;5052300;28;20210;-57
2023/10/10 08:43:28;;;;;;;11.70;7.35;;;16.00;99.90;;;;;;5052152;28;20256;-58
2023/10/10 08:46:03;;;;;;;12.63;7.28;;;16.10;99.90;;;;;;5052370;28;20252;-57
2023/10/10 08:48:33;;;;;;;14.38;7.70;;;16.20;99.90;;;;;;5052447;28;20560;-57
2023/10/10 08:51:04;;;;;;;13.23;7.68;;;16.30;99.90;;;;;;5051039;28;20210;-58
2023/10/10 08:53:34;;;;;;;16.23;8.45;;;16.50;99.90;;;;;;5052456;28;20211;-57
2023/10/10 08:56:03;;;;;;;17.50;7.95;;;16.50;99.90;;;;;;5051047;28;20240;-58
2023/10/10 08:58:31;;;;;;;13.88;7.63;;;16.60;99.90;;;;;;5052368;28;20245;-57
2023/10/10 09:01:01;;;;;;;13.65;7.88;;;16.70;99.90;;;;;;5051939;28;20206;-57
2023/10/10 09:03:34;;;;;;;19.38;8.32;;;16.80;99.90;;;;;;5052323;28;20296;-56
2023/10/10 09:06:16;;;;;;;11.75;7.82;;;16.90;99.90;;;;;;5051718;28;20322;-58
2023/10/10 09:08:49;;;;;;;16.17;8.57;;;17.00;99.90;;;;;;5052128;28;20205;-60
2023/10/10 09:11:20;;;;;;;17.27;7.82;;;17.20;99.90;;;;;;5052025;28;20220;-58
2023/10/10 09:13:51;;;;;;;16.48;9.05;;;17.30;99.90;;;;;;5051056;28;20209;-57
2023/10/10 09:16:40;;;;;;;17.60;8.77;;;17.40;99.90;;;;;;5051602;28;20232;-57
2023/10/10 09:19:10;;;;;;;15.57;8.52;;;17.60;99.90;;;;;;5051719;28;20204;-58
2023/10/10 09:21:50;;;;;;;17.70;7.72;;;17.70;99.90;;;;;;5050123;28;20201;-58
2023/10/10 09:24:27;;;;;;;13.97;7.77;;;17.80;99.90;;;;;;5044826;28;20205;-58
2023/10/10 09:26:57;;;;;;;17.20;8.68;;;18.00;99.90;;;;;;5051504;28;20315;-58
2023/10/10 09:29:32;;;;;;;14.43;8.65;;;18.20;99.90;;;;;;5057482;28;20204;-57
2023/10/10 09:32:05;;;;;;;20.50;10.50;;;18.30;99.90;;;;;;5071093;28;20215;-58
2023/10/10 09:34:40;;;;;;;18.83;8.38;;;18.40;99.90;;;;;;5058237;28;20654;-57
2023/10/10 09:37:13;;;;;;;18.38;8.60;;;18.50;99.90;;;;;;5050657;28;20315;-58
2023/10/10 09:39:43;;;;;;;16.10;8.35;;;18.70;99.90;;;;;;5051575;28;20267;-58
2023/10/10 09:42:28;;;;;;;20.90;8.98;;;18.90;99.90;;;;;;5051556;28;20255;-57
2023/10/10 09:47:55;;;;;;;21.08;9.18;;;19.20;99.90;;;;;;5047526;28;20244;-58
2023/10/10 09:50:35;;;;;;;17.63;8.50;;;19.30;99.90;;;;;;5044838;28;20316;-58
2023/10/10 09:53:06;;;;;;;25.90;9.55;;;19.50;99.90;;;;;;5051355;28;20204;-58
2023/10/10 09:55:39;;;;;;;17.50;8.75;;;19.60;99.90;;;;;;5050991;28;20583;-59
2023/10/10 10:01:04;;;;;;;20.27;8.82;;;20.10;99.90;;;;;;5045933;28;20216;-59
2023/10/10 10:03:40;;;;;;;20.88;8.95;;;20.40;99.90;;;;;;5051371;28;20666;-58
2023/10/10 10:06:35;;;;;;;17.98;8.85;;;20.60;99.90;;;;;;5050709;28;20702;-60
2023/10/10 10:09:45;;;;;;;15.48;8.13;;;20.70;99.90;;;;;;5051126;28;20209;-59
2023/10/10 10:12:30;;;;;;;17.23;9.32;;;20.90;99.90;;;;;;4989431;28;20207;-59
2023/10/10 10:15:07;;;;;;;15.23;9.15;;;21.10;99.90;;;;;;5044812;28;20303;-59
2023/10/10 10:17:47;;;;;;;19.35;9.07;;;21.40;99.90;;;;;;5051103;28;20237;-59
2023/10/10 10:20:25;;;;;;;21.02;9.45;;;21.60;99.90;;;;;;5050854;28;20201;-59
2023/10/10 10:22:59;;;;;;;16.23;8.55;;;22.00;99.90;;;;;;5048303;28;20304;-59
2023/10/10 10:25:31;;;;;;;13.73;8.73;;;22.30;99.90;;;;;;5050158;28;20224;-59
2023/10/10 10:28:10;;;;;;;19.75;8.35;;;22.60;99.90;;;;;;5050992;28;20205;-60
2023/10/10 10:30:51;;;;;;;19.58;9.02;;;22.90;99.90;;;;;;5050720;28;20204;-59
2023/10/10 10:33:22;;;;;;;17.00;8.52;;;23.20;99.90;;;;;;5050643;28;20308;-59
2023/10/10 10:36:14;;;;;;;14.95;8.80;;;23.40;99.90;;;;;;5050980;28;20671;-59
2023/10/10 10:39:18;;;;;;;30.95;11.02;;;23.40;99.90;;;;;;5070979;28;20243;-59
2023/10/10 10:41:42;;;;;;;17.23;8.40;;;23.60;99.90;;;;;;5070602;28;20207;-59
2023/10/10 10:44:13;;;;;;;18.92;8.35;;;23.80;99.90;;;;;;5072609;28;20277;-60
2023/10/10 10:46:47;;;;;;;27.13;10.68;;;23.90;99.90;;;;;;5075031;28;20260;-59
2023/10/10 10:49:22;;;;;;;19.95;8.13;;;24.00;99.90;;;;;;5074679;28;20230;-54
2023/10/10 10:52:07;;;;;;;13.85;7.07;;;24.10;99.90;;;;;;5074623;28;20208;-56
2023/10/10 10:54:38;;;;;;;16.73;8.23;;;24.10;99.90;;;;;;5074807;28;20243;-54
2023/10/10 10:57:06;;;;;;;20.65;8.75;;;23.90;99.90;;;;;;5074862;28;20286;-54
2023/10/10 10:59:38;;;;;;;27.15;8.35;;;23.80;99.90;;;;;;5074288;28;20200;-56
2023/10/10 11:02:16;;;;;;;23.10;8.55;;;23.90;99.90;;;;;;5074554;28;20207;-54
2023/10/10 11:04:49;;;;;;;19.00;7.18;;;24.00;99.90;;;;;;5074373;28;20208;-55
2023/10/10 11:07:29;;;;;;;13.23;7.78;;;24.00;99.90;;;;;;5074608;28;20388;-54
2023/10/10 11:10:07;;;;;;;10.30;7.00;;;24.00;99.90;;;;;;5074277;28;20200;-54
2023/10/10 11:12:37;;;;;;;18.17;8.30;;;23.90;99.90;;;;;;5074350;28;20201;-54
2023/10/10 11:15:10;;;;;;;11.07;7.80;;;24.00;99.90;;;;;;5074034;28;20209;-54
2023/10/10 11:17:42;;;;;;;12.88;7.82;;;24.00;99.90;;;;;;5090597;22;20618;-55
2023/10/10 11:20:50;;;;;;;15.20;7.78;;;24.00;99.90;;;;;;5054179;28;20672;-55
2023/10/10 11:23:20;;;;;;;11.10;7.40;;;23.90;99.90;;;;;;5053794;28;20211;-55
2023/10/10 11:26:00;;;;;;;13.93;7.93;;;23.90;99.90;;;;;;5053507;28;20338;-54
2023/10/10 11:28:37;;;;;;;13.63;7.57;;;23.90;99.90;;;;;;5054060;28;20299;-55
2023/10/10 11:31:07;;;;;;;14.38;7.80;;;23.90;99.90;;;;;;5052695;28;20296;-53
2023/10/10 11:33:48;;;;;;;17.15;8.05;;;23.90;99.90;;;;;;5053793;28;20627;-54
2023/10/10 11:36:29;;;;;;;18.23;7.45;;;24.00;99.90;;;;;;5053032;28;20197;-55
2023/10/10 11:39:16;;;;;;;16.20;8.18;;;24.10;99.90;;;;;;5053750;28;20223;-54
2023/10/10 11:41:47;;;;;;;23.05;8.07;;;24.10;99.90;;;;;;5049514;28;20726;-55
2023/10/10 11:44:18;;;;;;;13.82;8.23;;;24.00;99.90;;;;;;5029997;28;20216;-55
2023/10/10 11:46:49;;;;;;;14.63;7.65;;;24.00;99.90;;;;;;5030840;28;20602;-55
2023/10/10 11:49:17;;;;;;;14.55;8.10;;;23.90;99.90;;;;;;5037408;28;20237;-55
2023/10/10 11:51:46;;;;;;;20.05;8.30;;;23.90;99.90;;;;;;5053518;28;20292;-55
2023/10/10 11:54:25;;;;;;;12.95;7.78;;;23.90;99.90;;;;;;5053087;28;20754;-55
2023/10/10 11:56:53;;;;;;;13.98;7.50;;;23.90;99.90;;;;;;5053559;28;20201;-53
2023/10/10 11:59:22;;;;;;;15.93;7.75;;;23.80;99.90;;;;;;5045539;28;20212;-54
2023/10/10 12:01:54;;;;;;;21.00;7.97;;;23.80;99.90;;;;;;5053825;28;20305;-55
2023/10/10 12:04:31;;;;;;;12.77;7.88;;;23.80;99.90;;;;;;5053509;28;20697;-55
2023/10/10 12:07:00;;;;;;;12.27;7.57;;;23.80;99.90;;;;;;5053241;28;20229;-54
2023/10/10 12:09:34;;;;;;;13.93;7.20;;;23.80;99.90;;;;;;5053194;28;20213;-55
2023/10/10 12:12:03;;;;;;;15.90;7.25;;;23.90;99.90;;;;;;5053419;28;20201;-54
2023/10/10 12:14:32;;;;;;;19.17;7.80;;;24.00;99.90;;;;;;5053436;28;20274;-54
2023/10/10 12:17:05;;;;;;;20.15;8.23;;;24.00;99.90;;;;;;5053229;28;20217;-55
2023/10/10 12:19:37;;;;;;;15.93;7.43;;;23.80;99.90;;;;;;5053039;28;20259;-54
2023/10/10 12:22:10;;;;;;;12.95;6.65;;;23.80;99.90;;;;;;5053556;28;20206;-62
2023/10/10 12:24:40;;;;;;;18.05;6.97;;;23.80;99.90;;;;;;5053279;28;20213;-62
2023/10/10 12:27:09;;;;;;;14.77;6.65;;;23.80;99.90;;;;;;5053199;28;20229;-62
2023/10/10 12:29:39;;;;;;;12.63;7.10;;;23.90;99.90;;;;;;5053113;28;20309;-62
2023/10/10 12:32:18;;;;;;;15.40;7.82;;;24.00;99.90;;;;;;5053039;28;20317;-62
2023/10/10 12:34:46;;;;;;;18.20;8.02;;;24.10;99.90;;;;;;5053054;28;20205;-62
2023/10/10 12:37:16;;;;;;;19.88;6.93;;;24.20;99.90;;;;;;5053168;28;20275;-62
2023/10/10 12:39:45;;;;;;;18.98;8.30;;;24.20;99.90;;;;;;5052816;28;20202;-62
2023/10/10 12:42:13;;;;;;;22.02;7.95;;;24.30;99.90;;;;;;5052882;28;20625;-62
2023/10/10 12:44:47;;;;;;;19.45;7.97;;;24.30;99.90;;;;;;5052691;28;20205;-62
2023/10/10 12:47:17;;;;;;;17.13;8.15;;;24.40;99.90;;;;;;5053041;28;20312;-61
2023/10/10 12:49:45;;;;;;;13.98;7.70;;;24.50;99.90;;;;;;5052798;28;20227;-62
2023/10/10 12:52:16;;;;;;;16.42;7.40;;;24.80;99.90;;;;;;5052750;28;20216;-62
2023/10/10 12:54:56;;;;;;;18.52;7.97;;;25.00;99.90;;;;;;5052653;28;20209;-62
2023/10/10 12:57:31;;;;;;;14.90;7.40;;;25.40;99.90;;;;;;5048811;28;20269;-61
2023/10/10 13:00:23;;;;;;;19.52;7.90;;;25.80;99.90;;;;;;5049742;28;20233;-62
2023/10/10 13:02:47;;;;;;;20.83;7.15;;;26.00;99.90;;;;;;5052446;28;20205;-62
2023/10/10 13:05:17;;;;;;;16.17;8.10;;;26.30;99.90;;;;;;5052289;28;20683;-62
2023/10/10 13:07:45;;;;;;;17.63;6.95;;;26.50;99.90;;;;;;5051621;28;20229;-62
2023/10/10 13:10:14;;;;;;;19.88;7.50;;;26.70;99.90;;;;;;5052170;28;20220;-62
2023/10/10 13:12:45;;;;;;;12.82;7.03;;;26.90;99.90;;;;;;5052567;28;20267;-63
2023/10/10 13:15:18;;;;;;;16.15;7.78;;;27.00;99.90;;;;;;5050002;28;20219;-62
2023/10/10 13:17:54;;;;;;;13.52;7.22;;;27.00;99.90;;;;;;5047384;28;20233;-62
2023/10/10 13:20:22;;;;;;;15.70;7.07;;;27.00;99.90;;;;;;5052389;28;20205;-62
2023/10/10 13:22:51;;;;;;;15.88;6.65;;;27.00;99.90;;;;;;5052371;28;20623;-62
2023/10/10 13:25:21;;;;;;;19.77;6.53;;;27.10;99.90;;;;;;5051976;28;20205;-62
2023/10/10 13:27:52;;;;;;;17.33;7.00;;;27.10;99.90;;;;;;5052183;28;20233;-62
2023/10/10 13:30:20;;;;;;;13.95;6.65;;;27.10;99.90;;;;;;5051844;28;20293;-62
2023/10/10 13:32:48;;;;;;;14.40;6.82;;;27.10;99.90;;;;;;5052060;28;20300;-62
2023/10/10 13:35:19;;;;;;;9.82;6.22;;;27.00;99.90;;;;;;5051564;28;20682;-63
2023/10/10 13:37:47;;;;;;;11.43;6.28;;;27.00;99.90;;;;;;5052043;28;20249;-62
2023/10/10 13:40:21;;;;;;;15.98;7.57;;;26.90;99.90;;;;;;5051610;28;20205;-62
2023/10/10 13:42:50;;;;;;;18.33;6.57;;;26.90;99.90;;;;;;5051536;28;20215;-62
2023/10/10 13:45:22;;;;;;;9.93;5.65;;;26.80;99.90;;;;;;5051327;28;20209;-61
2023/10/10 13:47:50;;;;;;;12.35;6.55;;;26.80;99.90;;;;;;5051827;28;20233;-63
2023/10/10 13:50:31;;;;;;;13.75;6.00;;;26.60;99.90;;;;;;5051397;28;20224;-64
2023/10/10 13:53:00;;;;;;;15.80;5.75;;;26.60;99.90;;;;;;5044382;28;20211;-64
2023/10/10 13:55:33;;;;;;;13.68;6.35;;;26.60;99.90;;;;;;5043258;28;20259;-64
2023/10/10 13:58:07;;;;;;;11.45;5.90;;;26.60;99.90;;;;;;5051614;28;20232;-64
2023/10/10 14:00:39;;;;;;;12.63;6.10;;;26.70;99.90;;;;;;5051433;28;20197;-63
2023/10/10 14:03:07;;;;;;;11.50;5.93;;;26.90;99.90;;;;;;5043107;28;20225;-62
2023/10/10 14:05:36;;;;;;;16.17;6.22;;;27.20;99.90;;;;;;5051210;28;20201;-61
2023/10/10 14:08:07;;;;;;;10.65;5.70;;;27.40;99.90;;;;;;5051201;28;20233;-61
2023/10/10 14:10:38;;;;;;;10.77;5.65;;;27.50;99.90;;;;;;5051377;28;20209;-61
2023/10/10 14:13:20;;;;;;;17.35;6.18;;;27.50;99.90;;;;;;5051127;28;20247;-60
2023/10/10 14:15:55;;;;;;;12.93;6.57;;;27.50;99.90;;;;;;5051140;28;20205;-61
2023/10/10 14:18:27;;;;;;;11.00;5.78;;;27.50;99.90;;;;;;5050790;28;20256;-61
2023/10/10 14:20:55;;;;;;;12.90;6.13;;;27.50;99.90;;;;;;5035503;28;20205;-61
2023/10/10 14:23:24;;;;;;;9.35;6.30;;;27.50;99.90;;;;;;5031283;28;20209;-61
2023/10/10 14:25:52;;;;;;;11.52;6.18;;;27.50;99.90;;;;;;5030887;28;20216;-62
2023/10/10 14:28:21;;;;;;;13.68;6.60;;;27.50;99.90;;;;;;5042177;28;20229;-61
2023/10/10 14:30:50;;;;;;;12.00;6.13;;;27.50;99.90;;;;;;5050549;28;20201;-61
2023/10/10 14:33:22;;;;;;;10.90;5.65;;;27.50;99.90;;;;;;5051241;28;20210;-60
2023/10/10 14:35:50;;;;;;;14.35;6.00;;;27.50;99.90;;;;;;5051103;28;20232;-60
2023/10/10 14:38:18;;;;;;;15.13;6.50;;;27.50;99.90;;;;;;5026348;28;20606;-60
2023/10/10 14:40:46;;;;;;;13.93;6.70;;;27.50;99.90;;;;;;5030853;28;20641;-60
2023/10/10 14:43:14;;;;;;;13.52;6.28;;;27.50;99.90;;;;;;5044399;28;20251;-61
2023/10/10 14:45:43;;;;;;;14.77;6.03;;;27.40;99.90;;;;;;5039314;28;20202;-59
2023/10/10 14:48:18;;;;;;;11.40;5.78;;;27.20;99.90;;;;;;5048970;28;20278;-60
2023/10/10 14:50:52;;;;;;;12.00;6.35;;;27.00;99.90;;;;;;5050754;28;20280;-60
2023/10/10 14:53:22;;;;;;;19.55;6.30;;;27.00;99.90;;;;;;5050952;28;20213;-59
2023/10/10 14:55:51;;;;;;;17.00;6.00;;;26.80;99.90;;;;;;5050426;28;20710;-59
2023/10/10 14:58:21;;;;;;;14.05;6.25;;;26.70;99.90;;;;;;5051033;28;20245;-59
2023/10/10 15:00:53;;;;;;;13.30;5.95;;;26.70;99.90;;;;;;5050841;28;20296;-59
2023/10/10 15:03:23;;;;;;;13.25;6.72;;;26.70;99.90;;;;;;5050880;28;20232;-59
2023/10/10 15:05:52;;;;;;;13.75;6.38;;;26.60;99.90;;;;;;5042307;28;20197;-59
2023/10/10 15:08:20;;;;;;;14.60;6.20;;;26.70;99.90;;;;;;5039840;28;20268;-59